createdAt,value
2023-05-03T00:00:11.408Z,100481.25
2023-05-03T00:00:23.235Z,100477.75
2023-05-03T00:00:34.946Z,100478.56
2023-05-03T00:00:46.601Z,100475.88
2023-05-03T00:00:58.291Z,100480.22
2023-05-03T00:01:10.066Z,100475.06
2023-05-03T00:01:21.813Z,100478.56
2023-05-03T00:01:33.517Z,100477.75
2023-05-03T00:01:45.315Z,100482.06
2023-05-03T00:01:57.007Z,100475.06
2023-05-03T00:02:08.881Z,100479.59
2023-05-03T00:02:20.723Z,100475.06
2023-05-03T00:02:32.616Z,100477.75
2023-05-03T00:02:44.827Z,100477.94
2023-05-03T00:02:56.842Z,100475.47
2023-05-03T00:03:08.675Z,100482.50
2023-05-03T00:03:20.510Z,100481.44
2023-05-03T00:03:32.152Z,100487.63
2023-05-03T00:03:43.832Z,100480.63
2023-05-03T00:03:55.518Z,100479.00
2023-05-03T00:04:07.191Z,100481.66
2023-05-03T00:04:18.880Z,100480.81
2023-05-03T00:04:30.815Z,100485.19
2023-05-03T00:04:42.506Z,100482.50
2023-05-03T00:04:54.280Z,100480.81
2023-05-03T00:05:08.087Z,100487.03
2023-05-03T00:05:20.288Z,100471.75
2023-05-03T00:05:32.112Z,100483.31
2023-05-03T00:05:43.980Z,100478.75
2023-05-03T00:05:55.772Z,100477.94
2023-05-03T00:06:11.396Z,100475.47
2023-05-03T00:06:23.236Z,100483.31
2023-05-03T00:06:34.969Z,100479.81
2023-05-03T00:06:46.818Z,100475.25
2023-05-03T00:06:58.670Z,100493.22
2023-05-03T00:07:10.370Z,100477.94
2023-05-03T00:07:22.078Z,100475.47
2023-05-03T00:07:33.735Z,100479.00
2023-05-03T00:07:46.694Z,100481.66
2023-05-03T00:07:58.659Z,100475.47
2023-05-03T00:08:10.308Z,100479.81
2023-05-03T00:08:21.998Z,100481.88
2023-05-03T00:08:33.671Z,100479.19
2023-05-03T00:08:45.359Z,100476.50
2023-05-03T00:08:57.049Z,100480.19
2023-05-03T00:09:08.768Z,100481.03
2023-05-03T00:09:20.486Z,100480.19
2023-05-03T00:09:33.736Z,100478.38
2023-05-03T00:09:45.560Z,100474.00
2023-05-03T00:09:57.468Z,100470.50
2023-05-03T00:10:09.808Z,100479.38
2023-05-03T00:10:21.661Z,100477.75
2023-05-03T00:10:33.326Z,100479.38
2023-05-03T00:10:45.024Z,100472.38
2023-05-03T00:10:59.968Z,100470.50
2023-05-03T00:11:11.684Z,100475.88
2023-05-03T00:11:23.307Z,100467.00
2023-05-03T00:11:35.087Z,100475.06
2023-05-03T00:11:46.717Z,100476.06
2023-05-03T00:11:58.380Z,100471.31
2023-05-03T00:12:09.977Z,100462.88
2023-05-03T00:12:21.691Z,100468.63
2023-05-03T00:12:33.333Z,100466.38
2023-05-03T00:12:45.046Z,100474.22
2023-05-03T00:12:56.766Z,100471.56
2023-05-03T00:13:08.507Z,100468.00
2023-05-03T00:13:21.557Z,100466.19
2023-05-03T00:13:33.212Z,100469.88
2023-05-03T00:13:44.858Z,100471.75
2023-05-03T00:13:56.532Z,100468.44
2023-05-03T00:14:08.159Z,100472.75
2023-05-03T00:14:19.836Z,100475.44
2023-05-03T00:14:31.699Z,100466.56
2023-05-03T00:14:43.403Z,100464.13
2023-05-03T00:14:55.102Z,100475.66
2023-05-03T00:15:08.586Z,100471.13
2023-05-03T00:15:20.280Z,100474.00
2023-05-03T00:15:31.949Z,100468.63
2023-05-03T00:15:43.591Z,100468.63
2023-05-03T00:15:55.219Z,100471.31
2023-05-03T00:16:07.141Z,100474.00
2023-05-03T00:16:19.076Z,100467.81
2023-05-03T00:16:30.847Z,100464.31
2023-05-03T00:16:42.553Z,100464.31
2023-05-03T00:16:54.381Z,100460.81
2023-05-03T00:17:06.092Z,100466.16
2023-05-03T00:17:17.795Z,100464.31
2023-05-03T00:17:29.495Z,100472.34
2023-05-03T00:17:41.315Z,100464.31
2023-05-03T00:17:53.054Z,100458.94
2023-05-03T00:18:04.838Z,100472.34
2023-05-03T00:18:16.547Z,100464.50
2023-05-03T00:18:28.651Z,100465.31
2023-05-03T00:18:40.323Z,100465.31
2023-05-03T00:18:52.017Z,100459.94
2023-05-03T00:19:03.656Z,100461.81
2023-05-03T00:19:28.195Z,100462.63
2023-05-03T00:19:42.980Z,100464.31
2023-05-03T00:19:54.689Z,100461.81
2023-05-03T00:20:07.432Z,100462.63
2023-05-03T00:20:19.224Z,100461.81
2023-05-03T00:20:30.993Z,100459.13
2023-05-03T00:20:42.630Z,100459.13
2023-05-03T00:20:54.306Z,100459.38
2023-05-03T00:21:06.075Z,100454.59
2023-05-03T00:21:17.713Z,100452.13
2023-05-03T00:21:29.431Z,100462.88
2023-05-03T00:21:41.073Z,100466.38
2023-05-03T00:21:52.863Z,100458.50
2023-05-03T00:22:04.569Z,100454.19
2023-05-03T00:22:16.201Z,100462.88
2023-05-03T00:22:27.906Z,100458.50
2023-05-03T00:22:39.592Z,100457.69
2023-05-03T01:52:59.366Z,100501.00
2023-05-03T01:53:12.695Z,100501.00
2023-05-03T01:53:24.434Z,100495.63
2023-05-03T01:53:36.198Z,100498.31
2023-05-03T01:53:47.906Z,100501.00
2023-05-03T01:53:59.633Z,100493.97
2023-05-03T01:54:11.322Z,100492.13
2023-05-03T01:54:23.017Z,100494.81
2023-05-03T01:54:34.743Z,100494.81
2023-05-03T01:54:46.630Z,100492.97
2023-05-03T01:54:58.405Z,100495.44
2023-05-03T01:55:10.111Z,100492.13
2023-05-03T01:55:21.804Z,100491.91
2023-05-03T01:55:33.507Z,100494.59
2023-05-03T01:55:45.208Z,100499.16
2023-05-03T01:55:56.971Z,100492.97
2023-05-03T01:56:08.861Z,100495.63
2023-05-03T01:56:20.538Z,100492.97
2023-05-03T01:56:34.873Z,100495.63
2023-05-03T01:56:46.575Z,100498.31
2023-05-03T01:56:58.367Z,100493.97
2023-05-03T01:57:10.045Z,100492.13
2023-05-03T01:57:21.698Z,100495.63
2023-05-03T01:57:33.361Z,100497.50
2023-05-03T01:57:45.039Z,100495.84
2023-05-03T01:57:56.792Z,100492.13
2023-05-03T01:58:08.812Z,100493.97
2023-05-03T01:58:21.621Z,100495.84
2023-05-03T01:58:33.397Z,100495.63
2023-05-03T01:58:45.087Z,100497.69
2023-05-03T01:58:56.749Z,100499.56
2023-05-03T01:59:08.458Z,100488.81
2023-05-03T01:59:20.185Z,100495.00
2023-05-03T01:59:31.941Z,100491.50
2023-05-03T01:59:44.117Z,100498.75
2023-05-03T01:59:55.881Z,100494.38
2023-05-03T02:00:08.657Z,100492.34
2023-05-03T02:00:24.537Z,100491.50
2023-05-03T02:00:36.171Z,100492.53
2023-05-03T02:00:48.675Z,100495.00
2023-05-03T02:01:00.408Z,100489.66
2023-05-03T02:01:12.140Z,100480.56
2023-05-03T02:01:23.816Z,100497.69
2023-05-03T02:01:35.576Z,100490.69
2023-05-03T02:01:47.258Z,100490.69
2023-05-03T02:01:58.868Z,100488.81
2023-05-03T02:02:10.564Z,100493.38
2023-05-03T02:02:22.307Z,100486.16
2023-05-03T02:02:34.003Z,100491.50
2023-05-03T02:02:45.761Z,100484.47
2023-05-03T02:02:57.568Z,100493.97
2023-05-03T02:03:09.407Z,100489.66
2023-05-03T02:03:21.089Z,100488.00
2023-05-03T02:03:32.793Z,100492.34
2023-05-03T02:03:44.443Z,100487.78
2023-05-03T02:03:56.145Z,100487.78
2023-05-03T02:04:07.895Z,100491.50
2023-05-03T02:04:21.044Z,100487.78
2023-05-03T02:04:32.880Z,100488.81
2023-05-03T02:04:44.661Z,100489.66
2023-05-03T02:04:57.482Z,100488.81
2023-05-03T02:05:10.159Z,100486.16
2023-05-03T02:05:21.834Z,100488.81
2023-05-03T02:05:33.507Z,100488.00
2023-05-03T02:05:45.621Z,100485.53
2023-05-03T02:05:57.386Z,100484.47
2023-05-03T02:06:09.142Z,100483.66
2023-05-03T02:06:20.890Z,100481.78
2023-05-03T02:06:32.681Z,100483.47
2023-05-03T02:06:44.876Z,100479.97
2023-05-03T02:06:56.763Z,100486.34
2023-05-03T02:07:08.645Z,100488.19
2023-05-03T02:07:20.271Z,100489.03
2023-05-03T02:07:31.965Z,100480.97
2023-05-03T02:07:43.731Z,100480.97
2023-05-03T02:07:55.857Z,100483.84
2023-05-03T02:08:07.678Z,100487.16
2023-05-03T02:08:20.788Z,100480.78
2023-05-03T02:08:32.564Z,100484.47
2023-05-03T02:08:44.492Z,100480.97
2023-05-03T02:08:56.146Z,100485.31
2023-05-03T02:09:07.775Z,100484.47
2023-05-03T02:09:19.533Z,100483.66
2023-05-03T02:09:31.232Z,100483.66
2023-05-03T02:09:42.852Z,100482.84
2023-05-03T02:09:55.146Z,100480.97
2023-05-03T02:10:08.114Z,100483.66
2023-05-03T02:10:19.855Z,100482.84
2023-05-03T02:10:31.840Z,100480.97
2023-05-03T02:10:44.099Z,100484.47
2023-05-03T02:10:55.747Z,100485.53
2023-05-03T02:11:07.403Z,100479.34
2023-05-03T02:11:19.802Z,100485.53
2023-05-03T02:11:31.527Z,100486.34
2023-05-03T02:11:43.225Z,100483.66
2023-05-03T02:11:54.905Z,100482.84
2023-05-03T02:12:06.906Z,100478.28
2023-05-03T02:12:19.391Z,100483.66
2023-05-03T02:12:31.740Z,100482.00
2023-05-03T02:12:43.974Z,100487.56
2023-05-03T02:12:55.775Z,100480.34
2023-05-03T02:13:07.419Z,100476.84
2023-05-03T02:13:19.152Z,100480.56
2023-05-03T02:13:30.788Z,100480.56
2023-05-03T02:13:42.488Z,100479.72
2023-05-03T02:13:54.327Z,100481.56
2023-05-03T02:14:06.049Z,100486.13
2023-05-03T02:14:17.726Z,100475.41
2023-05-03T02:14:29.403Z,100476.22
2023-05-03T02:14:41.070Z,100477.25
2023-05-03T02:14:53.959Z,100479.72
2023-05-03T02:15:06.862Z,100480.75
2023-05-03T02:15:18.634Z,100482.41
2023-05-03T02:15:30.318Z,100478.91
2023-05-03T02:15:42.054Z,100477.03
2023-05-03T02:15:53.702Z,100479.72
2023-05-03T02:16:05.687Z,100478.72
2023-05-03T02:16:17.838Z,100479.72
2023-05-03T02:16:29.541Z,100478.06
2023-05-03T02:16:41.971Z,100479.72
2023-05-03T02:16:53.728Z,100479.72
2023-05-03T02:17:05.459Z,100479.72
2023-05-03T02:17:18.869Z,100479.53
2023-05-03T02:17:30.635Z,100479.72
2023-05-03T02:17:43.136Z,100482.41
2023-05-03T02:17:54.932Z,100479.72
2023-05-03T02:18:06.833Z,100477.88
2023-05-03T02:18:18.650Z,100482.41
2023-05-03T02:18:30.280Z,100480.34
2023-05-03T02:18:41.957Z,100480.56
2023-05-03T02:18:53.605Z,100471.88
2023-05-03T02:19:05.284Z,100478.91
2023-05-03T02:19:17.075Z,100474.34
2023-05-03T02:19:28.778Z,100483.25
2023-05-03T02:19:40.525Z,100477.03
2023-05-03T02:19:52.294Z,100477.03
2023-05-03T02:20:04.918Z,100477.03
2023-05-03T02:20:17.409Z,100478.91
2023-05-03T02:20:29.118Z,100474.34
2023-05-03T02:20:45.054Z,100476.22
2023-05-03T02:20:56.771Z,100478.72
2023-05-03T02:21:10.028Z,100477.88
2023-05-03T02:21:21.748Z,100483.03
2023-05-03T02:21:33.719Z,100473.34
2023-05-03T02:21:45.397Z,100482.22
2023-05-03T02:21:57.194Z,100472.28
2023-05-03T02:22:08.911Z,100471.66
2023-05-03T02:22:20.658Z,100481.38
2023-05-03T02:22:32.950Z,100470.66
2023-05-03T02:22:44.658Z,100480.34
2023-05-03T02:22:56.367Z,100482.00
2023-05-03T02:23:08.069Z,100481.16
2023-05-03T02:23:21.159Z,100480.34
2023-05-03T02:23:32.827Z,100481.16
2023-05-03T02:23:44.493Z,100483.84
2023-05-03T02:23:56.262Z,100485.72
2023-05-03T02:24:08.077Z,100483.03
2023-05-03T02:24:19.851Z,100475.19
2023-05-03T02:24:33.698Z,100486.53
2023-05-03T02:24:45.443Z,100481.56
2023-05-03T02:24:57.547Z,100474.56
2023-05-03T02:25:09.473Z,100483.03
2023-05-03T02:25:22.627Z,100479.72
2023-05-03T02:25:34.281Z,100477.88
2023-05-03T02:25:46.087Z,100479.72
2023-05-03T02:25:58.030Z,100487.56
2023-05-03T02:26:09.681Z,100484.25
2023-05-03T02:26:21.657Z,100483.44
2023-05-03T02:26:33.367Z,100480.56
2023-05-03T02:26:45.163Z,100477.03
2023-05-03T02:26:56.791Z,100484.06
2023-05-03T02:27:08.604Z,100481.38
2023-05-03T02:27:20.310Z,100477.88
2023-05-03T02:27:32.006Z,100483.25
2023-05-03T02:27:43.698Z,100484.88
2023-05-03T02:27:55.371Z,100479.72
2023-05-03T02:28:07.852Z,100480.56
2023-05-03T02:28:20.838Z,100481.56
2023-05-03T02:28:32.601Z,100477.88
2023-05-03T02:28:44.902Z,100479.94
2023-05-03T02:28:56.600Z,100477.03
2023-05-03T02:29:08.914Z,100484.25
2023-05-03T02:29:20.703Z,100484.25
2023-05-03T02:29:32.752Z,100478.06
2023-05-03T02:29:47.489Z,100478.91
2023-05-03T02:29:59.853Z,100478.91
2023-05-03T02:30:12.479Z,100482.63
2023-05-03T02:30:28.452Z,100475.41
2023-05-03T02:30:40.115Z,100475.41
2023-05-03T02:30:51.930Z,100483.44
2023-05-03T02:31:03.714Z,100480.75
2023-05-03T02:31:15.440Z,100478.06
2023-05-03T02:31:28.379Z,100479.09
2023-05-03T02:31:42.590Z,100476.41
2023-05-03T02:31:54.268Z,100479.94
2023-05-03T02:32:06.043Z,100476.41
2023-05-03T02:32:17.890Z,100478.06
2023-05-03T02:32:31.032Z,100476.22
2023-05-03T02:32:42.760Z,100477.25
2023-05-03T02:32:55.214Z,100478.06
2023-05-03T02:33:07.359Z,100472.72
2023-05-03T02:33:20.247Z,100472.91
2023-05-03T02:33:32.617Z,100477.25
2023-05-03T02:33:44.406Z,100471.88
2023-05-03T02:33:56.084Z,100478.06
2023-05-03T02:34:10.400Z,100480.13
2023-05-03T02:34:22.100Z,100471.03
2023-05-03T02:34:35.735Z,100478.06
2023-05-03T02:34:48.485Z,100465.69
2023-05-03T02:35:04.433Z,100478.06
2023-05-03T02:35:16.314Z,100470.03
2023-05-03T02:35:28.044Z,100467.16
2023-05-03T02:35:39.677Z,100472.72
2023-05-03T02:35:51.411Z,100473.53
2023-05-03T02:36:03.294Z,100466.53
2023-05-03T02:36:15.018Z,100471.03
2023-05-03T02:36:28.829Z,100472.72
2023-05-03T02:36:41.304Z,100471.88
2023-05-03T02:36:53.054Z,100472.72
2023-05-03T02:37:05.955Z,100476.22
2023-05-03T02:37:18.421Z,100467.34
2023-05-03T02:37:30.689Z,100473.53
2023-05-03T02:37:42.469Z,100471.66
2023-05-03T02:37:56.823Z,100469.84
2023-05-03T02:38:08.514Z,100471.47
2023-05-03T02:38:23.518Z,100466.94
2023-05-03T02:38:35.810Z,100467.97
2023-05-03T02:38:47.561Z,100478.47
2023-05-03T02:38:59.292Z,100472.28
2023-05-03T02:39:11.002Z,100470.84
2023-05-03T02:39:22.663Z,100473.13
2023-05-03T02:39:35.306Z,100474.97
2023-05-03T02:39:48.346Z,100473.13
2023-05-03T02:40:01.273Z,100473.13
2023-05-03T02:40:13.341Z,100471.47
2023-05-03T02:40:26.795Z,100471.47
2023-05-03T02:40:38.871Z,100467.75
2023-05-03T02:40:50.716Z,100471.47
2023-05-03T02:41:02.454Z,100470.44
2023-05-03T02:41:15.407Z,100474.97
2023-05-03T02:41:27.005Z,100474.97
2023-05-03T02:41:38.927Z,100474.16
2023-05-03T02:41:50.640Z,100473.13
2023-05-03T02:42:02.330Z,100466.94
2023-05-03T02:42:13.998Z,100462.38
2023-05-03T02:42:25.679Z,100472.09
2023-05-03T02:42:37.656Z,100469.41
2023-05-03T02:42:51.636Z,100464.25
2023-05-03T02:43:09.462Z,100469.63
2023-05-03T02:43:22.367Z,100470.44
2023-05-03T02:43:34.161Z,100474.97
2023-05-03T02:43:45.949Z,100473.13
2023-05-03T02:43:58.005Z,100468.16
2023-05-03T02:44:11.722Z,100463.63
2023-05-03T02:44:23.507Z,100464.25
2023-05-03T02:44:35.309Z,100460.94
2023-05-03T02:44:46.986Z,100469.84
2023-05-03T02:44:58.668Z,100470.66
2023-05-03T02:45:11.678Z,100469.84
2023-05-03T02:45:24.337Z,100455.78
2023-05-03T02:45:36.277Z,100466.53
2023-05-03T02:45:47.992Z,100459.50
2023-05-03T02:45:59.940Z,100463.00
2023-05-03T02:46:11.787Z,100460.31
2023-05-03T02:46:24.236Z,100465.69
2023-05-03T02:46:36.027Z,100467.53
2023-05-03T02:46:47.882Z,100465.69
2023-05-03T02:47:01.718Z,100464.03
2023-05-03T02:47:13.401Z,100454.13
2023-05-03T02:47:27.043Z,100464.84
2023-05-03T02:47:38.813Z,100458.66
2023-05-03T02:47:51.124Z,100459.50
2023-05-03T02:48:04.372Z,100464.84
2023-05-03T02:48:16.229Z,100456.81
2023-05-03T02:48:27.966Z,100456.19
2023-05-03T02:48:39.674Z,100454.31
2023-05-03T02:48:51.367Z,100457.84
2023-05-03T02:49:02.995Z,100464.84
2023-05-03T02:49:14.713Z,100458.66
2023-05-03T02:49:26.421Z,100460.53
2023-05-03T02:49:38.127Z,100456.81
2023-05-03T02:49:50.117Z,100458.88
2023-05-03T02:50:02.191Z,100463.22
2023-05-03T02:50:16.783Z,100453.31
2023-05-03T02:50:28.486Z,100458.66
2023-05-03T02:50:40.145Z,100457.00
2023-05-03T02:50:51.888Z,100457.84
2023-05-03T02:51:03.850Z,100455.16
2023-05-03T02:51:15.554Z,100460.53
2023-05-03T02:51:27.291Z,100452.50
2023-05-03T02:51:39.031Z,100458.88
2023-05-03T02:51:50.694Z,100460.53
2023-05-03T02:52:02.376Z,100462.38
2023-05-03T02:52:14.124Z,100454.31
2023-05-03T02:52:25.777Z,100457.00
2023-05-03T02:52:37.533Z,100458.88
2023-05-03T02:52:49.256Z,100453.72
2023-05-03T02:53:00.976Z,100461.34
2023-05-03T02:53:12.702Z,100461.53
2023-05-03T02:53:26.124Z,100457.22
2023-05-03T02:53:41.154Z,100463.41
2023-05-03T02:53:52.937Z,100461.78
2023-05-03T02:54:04.760Z,100460.72
2023-05-03T02:54:16.809Z,100466.09
2023-05-03T02:54:28.841Z,100459.09
2023-05-03T02:54:41.857Z,100456.41
2023-05-03T02:54:56.570Z,100461.78
2023-05-03T02:55:09.279Z,100456.59
2023-05-03T02:55:22.408Z,100464.44
2023-05-03T02:55:34.436Z,100460.09
2023-05-03T02:55:46.592Z,100452.06
2023-05-03T02:55:58.543Z,100459.09
2023-05-03T02:56:10.565Z,100459.91
2023-05-03T02:56:22.388Z,100459.91
2023-05-03T02:56:34.022Z,100465.28
2023-05-03T02:56:45.659Z,100461.16
2023-05-03T02:56:57.255Z,100455.56
2023-05-03T02:57:09.090Z,100457.41
2023-05-03T02:57:20.836Z,100460.09
2023-05-03T02:57:32.498Z,100455.56
2023-05-03T02:57:44.524Z,100464.44
2023-05-03T02:57:59.387Z,100459.09
2023-05-03T02:58:11.098Z,100463.59
2023-05-03T02:58:22.911Z,100461.78
2023-05-03T02:58:34.677Z,100461.78
2023-05-03T02:58:48.238Z,100454.75
2023-05-03T02:58:59.883Z,100462.59
2023-05-03T02:59:11.723Z,100464.44
2023-05-03T02:59:23.715Z,100451.88
2023-05-03T02:59:36.054Z,100459.91
2023-05-03T02:59:47.832Z,100452.06
2023-05-03T02:59:59.624Z,100458.25
2023-05-03T03:00:12.832Z,100456.41
2023-05-03T03:00:24.480Z,100454.75
2023-05-03T03:00:36.401Z,100459.28
2023-05-03T03:00:48.024Z,100453.91
2023-05-03T03:01:00.616Z,100457.41
2023-05-03T03:01:14.956Z,100455.78
2023-05-03T03:01:26.816Z,100457.41
2023-05-03T03:01:39.025Z,100456.59
2023-05-03T03:01:51.003Z,100458.25
2023-05-03T03:02:02.832Z,100454.75
2023-05-03T03:02:15.944Z,100448.72
2023-05-03T03:02:27.722Z,100460.25
2023-05-03T03:02:40.145Z,100456.75
2023-05-03T03:02:52.008Z,100454.06
2023-05-03T03:03:03.936Z,100455.13
2023-05-03T03:03:15.804Z,100455.13
2023-05-03T03:03:27.612Z,100452.44
2023-05-03T03:03:39.471Z,100450.75
2023-05-03T03:03:51.359Z,100459.66
2023-05-03T03:04:03.515Z,100458.00
2023-05-03T03:04:15.768Z,100455.31
2023-05-03T03:04:27.479Z,100461.50
2023-05-03T03:04:39.137Z,100456.34
2023-05-03T03:04:50.860Z,100451.81
2023-05-03T03:05:02.630Z,100461.50
2023-05-03T03:05:14.417Z,100456.13
2023-05-03T03:05:31.195Z,100461.50
2023-05-03T03:05:42.908Z,100462.34
2023-05-03T03:05:54.810Z,100455.31
2023-05-03T03:06:07.342Z,100455.31
2023-05-03T03:06:20.484Z,100461.50
2023-05-03T03:06:32.736Z,100460.69
2023-05-03T03:06:45.166Z,100458.81
2023-05-03T03:06:57.478Z,100463.16
2023-05-03T03:07:09.456Z,100454.31
2023-05-03T03:07:21.174Z,100457.81
2023-05-03T03:07:33.487Z,100461.50
2023-05-03T03:07:45.181Z,100465.03
2023-05-03T03:07:56.860Z,100463.16
2023-05-03T03:08:09.019Z,100461.31
2023-05-03T03:08:21.269Z,100464.19
2023-05-03T03:08:36.313Z,100461.50
2023-05-03T03:08:49.110Z,100458.81
2023-05-03T03:09:00.888Z,100467.72
2023-05-03T03:09:12.587Z,100465.84
2023-05-03T03:09:25.142Z,100461.50
2023-05-03T03:09:36.726Z,100459.66
2023-05-03T03:09:48.505Z,100459.03
2023-05-03T03:10:00.345Z,100459.66
2023-05-03T03:10:13.636Z,100462.34
2023-05-03T03:10:25.359Z,100460.47
2023-05-03T03:10:37.237Z,100461.50
2023-05-03T03:10:49.712Z,100462.53
2023-05-03T03:11:01.976Z,100458.00
2023-05-03T03:11:13.945Z,100459.66
2023-05-03T03:11:25.729Z,100463.16
2023-05-03T03:11:38.007Z,100460.69
2023-05-03T03:11:51.209Z,100458.63
2023-05-03T03:12:03.461Z,100458.81
2023-05-03T03:12:15.318Z,100465.84
2023-05-03T03:12:27.412Z,100462.34
2023-05-03T03:12:39.782Z,100458.81
2023-05-03T03:12:55.470Z,100465.03
2023-05-03T03:13:13.641Z,100456.97
2023-05-03T03:13:25.309Z,100460.69
2023-05-03T03:13:37.608Z,100463.34
2023-05-03T03:13:49.923Z,100453.44
2023-05-03T03:14:01.575Z,100463.34
2023-05-03T03:14:13.293Z,100459.84
2023-05-03T03:14:25.685Z,100461.50
2023-05-03T03:14:37.408Z,100458.81
2023-05-03T03:14:49.144Z,100463.16
2023-05-03T03:15:00.861Z,100460.47
2023-05-03T03:15:15.107Z,100462.34
2023-05-03T03:15:26.828Z,100456.97
2023-05-03T03:15:39.063Z,100458.81
2023-05-03T03:15:51.000Z,100454.31
2023-05-03T03:16:02.861Z,100452.44
2023-05-03T03:16:14.516Z,100457.81
2023-05-03T03:16:26.267Z,100450.75
2023-05-03T03:16:38.043Z,100454.31
2023-05-03T03:16:51.829Z,100447.47
2023-05-03T03:17:07.511Z,100449.94
2023-05-03T03:17:19.180Z,100460.69
2023-05-03T03:17:30.910Z,100456.13
2023-05-03T03:17:42.836Z,100462.34
2023-05-03T03:17:55.887Z,100462.34
2023-05-03T03:18:07.772Z,100461.50
2023-05-03T03:18:20.877Z,100455.50
2023-05-03T03:18:32.560Z,100457.81
2023-05-03T03:18:44.232Z,100459.66
2023-05-03T03:18:55.839Z,100456.13
2023-05-03T03:19:07.531Z,100458.81
2023-05-03T03:19:19.188Z,100458.00
2023-05-03T03:19:30.867Z,100463.16
2023-05-03T03:19:42.516Z,100464.19
2023-05-03T03:19:54.219Z,100463.16
2023-05-03T03:20:07.274Z,100464.19
2023-05-03T03:20:19.032Z,100465.84
2023-05-03T03:20:32.581Z,100460.47
2023-05-03T03:20:44.313Z,100464.81
2023-05-03T03:20:56.015Z,100464.81
2023-05-03T03:21:07.764Z,100460.69
2023-05-03T03:21:20.978Z,100464.81
2023-05-03T03:21:32.686Z,100466.50
2023-05-03T03:21:44.485Z,100465.63
2023-05-03T03:21:56.152Z,100463.16
2023-05-03T03:22:10.352Z,100465.63
2023-05-03T03:22:21.986Z,100463.81
2023-05-03T03:22:33.648Z,100462.78
2023-05-03T03:22:45.307Z,100467.31
2023-05-03T03:22:59.674Z,100457.41
2023-05-03T03:23:11.818Z,100463.59
2023-05-03T03:23:23.522Z,100454.75
2023-05-03T03:23:36.568Z,100457.41
2023-05-03T03:23:48.270Z,100456.59
2023-05-03T03:24:00.040Z,100460.91
2023-05-03T03:24:11.753Z,100467.94
2023-05-03T03:24:24.369Z,100453.72
2023-05-03T03:24:36.785Z,100459.09
2023-05-03T03:24:49.206Z,100456.41
2023-05-03T03:25:00.907Z,100459.69
2023-05-03T03:25:12.606Z,100459.69
2023-05-03T03:25:24.504Z,100467.72
2023-05-03T03:25:37.121Z,100461.53
2023-05-03T03:25:48.821Z,100459.69
2023-05-03T03:26:01.143Z,100465.91
2023-05-03T03:26:12.874Z,100462.38
2023-05-03T03:26:24.601Z,100456.19
2023-05-03T03:26:36.705Z,100459.69
2023-05-03T03:26:48.373Z,100461.53
2023-05-03T03:27:00.059Z,100458.66
2023-05-03T03:27:11.925Z,100465.06
2023-05-03T03:27:23.608Z,100461.34
2023-05-03T03:27:36.817Z,100457.84
2023-05-03T03:27:49.253Z,100454.31
2023-05-03T03:28:00.878Z,100458.66
2023-05-03T03:28:13.535Z,100456.00
2023-05-03T03:28:25.341Z,100460.53
2023-05-03T03:28:37.794Z,100463.22
2023-05-03T03:28:53.890Z,100457.00
2023-05-03T03:29:05.583Z,100461.34
2023-05-03T03:29:19.161Z,100463.22
2023-05-03T03:29:32.375Z,100465.69
2023-05-03T03:29:45.589Z,100461.53
2023-05-03T03:29:59.007Z,100462.19
2023-05-03T03:30:11.499Z,100462.19
2023-05-03T03:30:32.036Z,100455.16
2023-05-03T03:30:53.701Z,100460.31
2023-05-03T03:31:09.124Z,100460.31
2023-05-03T03:31:20.997Z,100454.94
2023-05-03T03:31:32.737Z,100461.34
2023-05-03T03:31:44.543Z,100461.34
2023-05-03T03:31:57.176Z,100461.34
2023-05-03T03:32:08.975Z,100457.84
2023-05-03T03:32:20.827Z,100457.84
2023-05-03T03:32:32.630Z,100457.00
2023-05-03T03:32:46.576Z,100464.03
2023-05-03T03:33:04.301Z,100464.84
2023-05-03T03:33:24.444Z,100464.03
2023-05-03T03:33:38.881Z,100465.69
2023-05-03T03:33:56.554Z,100466.72
2023-05-03T03:34:12.793Z,100464.03
2023-05-03T03:34:25.044Z,100464.03
2023-05-03T03:34:36.822Z,100462.19
2023-05-03T03:34:49.002Z,100471.03
2023-05-03T03:35:00.772Z,100464.84
2023-05-03T03:35:14.263Z,100465.69
2023-05-03T03:35:26.355Z,100475.41
2023-05-03T03:35:38.903Z,100463.84
2023-05-03T03:35:51.333Z,100467.53
2023-05-03T03:36:05.051Z,100464.66
2023-05-03T03:36:20.825Z,100467.34
2023-05-03T03:36:33.800Z,100461.97
2023-05-03T03:36:45.688Z,100462.81
2023-05-03T03:36:57.371Z,100463.63
2023-05-03T03:37:11.150Z,100468.97
2023-05-03T03:37:26.087Z,100464.47
2023-05-03T03:37:38.130Z,100462.81
2023-05-03T03:37:50.397Z,100466.53
2023-05-03T03:38:02.613Z,100466.31
2023-05-03T03:38:14.277Z,100468.16
2023-05-03T03:38:33.994Z,100465.28
2023-05-03T03:38:50.925Z,100466.09
2023-05-03T03:39:02.821Z,100464.47
2023-05-03T03:39:14.781Z,100474.97
2023-05-03T03:39:27.803Z,100469.84
2023-05-03T03:39:39.999Z,100460.75
2023-05-03T03:39:51.763Z,100467.56
2023-05-03T03:40:04.351Z,100466.94
2023-05-03T03:40:16.534Z,100464.25
2023-05-03T03:40:29.559Z,100468.59
2023-05-03T03:40:42.284Z,100464.25
2023-05-03T03:40:54.064Z,100467.75
2023-05-03T03:41:06.044Z,100472.28
2023-05-03T03:41:19.561Z,100462.38
2023-05-03T03:41:32.116Z,100470.44
2023-05-03T03:41:44.070Z,100468.59
2023-05-03T03:41:56.076Z,100465.06
2023-05-03T03:42:07.975Z,100471.28
2023-05-03T03:42:20.955Z,100469.63
2023-05-03T03:42:33.238Z,100466.94
2023-05-03T03:42:44.899Z,100467.56
2023-05-03T03:42:56.535Z,100468.59
2023-05-03T03:43:08.265Z,100467.56
2023-05-03T03:43:20.862Z,100467.56
2023-05-03T03:43:33.655Z,100468.38
2023-05-03T03:43:48.505Z,100472.94
2023-05-03T03:44:03.782Z,100473.75
2023-05-03T03:44:15.556Z,100470.25
2023-05-03T03:44:27.302Z,100471.06
2023-05-03T03:44:39.072Z,100471.06
2023-05-03T03:44:52.207Z,100465.69
2023-05-03T03:45:04.687Z,100470.25
2023-05-03T03:45:16.463Z,100472.94
2023-05-03T03:45:28.350Z,100476.44
2023-05-03T03:45:40.045Z,100471.91
2023-05-03T03:45:52.357Z,100474.59
2023-05-03T03:46:04.281Z,100470.06
2023-05-03T03:46:16.737Z,100472.72
2023-05-03T03:46:28.846Z,100473.75
2023-05-03T03:46:43.026Z,100476.22
2023-05-03T03:46:54.730Z,100464.88
2023-05-03T03:47:07.934Z,100471.69
2023-05-03T03:47:19.977Z,100468.19
2023-05-03T03:47:32.566Z,100475.19
2023-05-03T03:48:14.222Z,100473.56
2023-05-03T03:48:26.059Z,100481.59
2023-05-03T03:48:38.224Z,100485.09
2023-05-03T03:48:50.482Z,100476.22
2023-05-03T03:49:02.556Z,100479.75
2023-05-03T03:49:15.738Z,100475.59
2023-05-03T03:49:27.410Z,100477.28
2023-05-03T03:49:39.121Z,100476.44
2023-05-03T03:49:50.968Z,100479.34
2023-05-03T03:50:03.612Z,100477.28
2023-05-03T03:50:17.060Z,100474.59
2023-05-03T03:50:28.854Z,100478.91
2023-05-03T03:50:41.260Z,100485.91
2023-05-03T03:50:53.928Z,100480.56